Time;durP1;ratioP1;P1;durP2;ratioP2;P2;SDS_P1;SDS_P2;PMS_P1;PMS_P2;Temp;Humidity;BMP_temperature;BMP_pressure;BME280_temperature;BME280_humidity;BME280_pressure;Samples;Min_cycle;Max_cycle;Signal;HPM_P1;HPM_P2
2022/05/05 00:02:20;;;;;;;51.07;33.43;;;11.40;68.10;;;;;;7382834;19;20090;-62
2022/05/05 00:04:50;;;;;;;43.17;33.40;;;11.40;68.20;;;;;;7362425;19;20259;-62
2022/05/05 00:07:19;;;;;;;44.70;33.95;;;11.40;68.20;;;;;;7363022;19;20007;-62
2022/05/05 00:09:49;;;;;;;45.50;32.90;;;11.40;68.30;;;;;;7358162;19;20086;-62
2022/05/05 00:15:07;;;;;;;43.35;32.95;;;11.40;68.40;;;;;;7361235;19;20021;-62
2022/05/05 00:17:37;;;;;;;45.42;32.60;;;11.40;68.40;;;;;;7386346;19;20089;-62
2022/05/05 00:20:08;;;;;;;44.03;32.35;;;11.40;68.50;;;;;;7357820;19;20010;-62
2022/05/05 00:22:38;;;;;;;41.30;32.03;;;11.50;68.50;;;;;;7361270;19;20015;-62
2022/05/05 00:25:09;;;;;;;44.55;33.10;;;11.50;68.60;;;;;;7363741;19;20014;-63
2022/05/05 00:27:39;;;;;;;39.72;31.60;;;11.60;68.70;;;;;;7361353;19;20086;-63
2022/05/05 00:30:13;;;;;;;45.38;33.28;;;11.50;68.40;;;;;;7356095;19;20043;-63
2022/05/05 00:32:43;;;;;;;45.15;32.03;;;11.50;68.20;;;;;;7362116;19;20462;-63
2022/05/05 00:35:12;;;;;;;40.83;31.58;;;11.50;67.40;;;;;;7383972;19;20010;-63
2022/05/05 00:37:42;;;;;;;42.72;30.77;;;11.50;68.00;;;;;;7362217;19;20052;-63
2022/05/05 00:40:13;;;;;;;44.10;32.60;;;11.50;67.80;;;;;;7357870;19;20089;-63
2022/05/05 00:42:43;;;;;;;43.25;32.35;;;11.50;67.60;;;;;;7363249;19;20030;-63
2022/05/05 00:45:16;;;;;;;46.13;33.55;;;11.50;67.40;;;;;;7361952;19;20848;-63
2022/05/05 00:47:46;;;;;;;46.58;34.50;;;11.60;67.60;;;;;;7363310;19;20010;-63
2022/05/05 00:50:16;;;;;;;44.67;32.28;;;11.60;67.40;;;;;;7377654;19;20031;-63
2022/05/05 00:52:46;;;;;;;46.47;33.78;;;11.60;67.20;;;;;;7363270;19;20013;-63
2022/05/05 00:55:16;;;;;;;44.00;31.85;;;11.50;66.90;;;;;;7362573;19;20031;-63
2022/05/05 00:57:46;;;;;;;43.08;31.90;;;11.50;67.10;;;;;;7369055;19;20490;-62
2022/05/05 01:00:19;;;;;;;45.65;33.72;;;11.50;67.80;;;;;;7363096;19;20082;-63
2022/05/05 01:02:49;;;;;;;48.40;34.78;;;11.60;67.90;;;;;;7371148;19;20048;-63
2022/05/05 01:05:20;;;;;;;46.30;33.30;;;11.60;68.30;;;;;;7389178;19;20027;-62
2022/05/05 01:07:50;;;;;;;45.38;32.42;;;11.50;67.70;;;;;;7368358;19;20089;-62
2022/05/05 01:10:20;;;;;;;45.88;34.25;;;11.60;68.20;;;;;;7361886;19;20134;-62
2022/05/05 01:12:50;;;;;;;43.67;32.20;;;11.60;68.10;;;;;;7370524;19;20381;-62
2022/05/05 01:15:23;;;;;;;47.67;34.75;;;11.60;67.90;;;;;;7367189;19;20078;-62
2022/05/05 01:17:53;;;;;;;42.40;31.35;;;11.50;67.90;;;;;;7369232;19;20010;-62
2022/05/05 01:20:24;;;;;;;48.40;34.45;;;11.60;68.30;;;;;;7384047;19;20033;-63
2022/05/05 01:22:56;;;;;;;43.28;33.22;;;11.60;68.10;;;;;;7367436;19;20014;-63
2022/05/05 01:28:16;;;;;;;48.10;34.15;;;11.50;68.20;;;;;;7364009;19;20046;-63
2022/05/05 01:30:48;;;;;;;49.92;36.38;;;11.60;68.40;;;;;;7365598;19;20021;-63
2022/05/05 01:33:19;;;;;;;53.50;36.97;;;11.60;68.50;;;;;;7369331;19;20016;-63
2022/05/05 01:35:51;;;;;;;52.97;37.38;;;11.60;68.50;;;;;;7365818;19;20481;-63
2022/05/05 01:38:25;;;;;;;53.75;39.13;;;11.70;68.60;;;;;;7382446;19;20022;-63
2022/05/05 01:40:55;;;;;;;;;;;11.70;68.60;;;;;;7366347;19;20027;-62
2022/05/05 01:43:25;;;;;;;46.85;33.70;;;11.70;67.90;;;;;;7368629;19;19982;-62
2022/05/05 01:45:54;;;;;;;43.22;33.40;;;11.60;67.20;;;;;;7367226;19;20708;-62
2022/05/05 01:48:24;;;;;;;42.80;33.33;;;11.50;66.80;;;;;;7362577;19;20105;-63
2022/05/05 01:50:54;;;;;;;41.70;32.47;;;11.50;66.20;;;;;;7365861;19;20263;-63
2022/05/05 01:53:27;;;;;;;51.13;34.97;;;11.50;65.90;;;;;;7390869;19;20770;-63
2022/05/05 01:55:57;;;;;;;46.67;33.17;;;11.50;65.70;;;;;;7368171;19;20017;-63
2022/05/05 01:58:27;;;;;;;43.28;34.05;;;11.50;65.60;;;;;;7361960;19;20010;-63
2022/05/05 02:00:57;;;;;;;44.70;34.17;;;11.50;65.70;;;;;;7365158;19;20366;-63
2022/05/05 02:03:27;;;;;;;43.45;33.83;;;11.50;65.60;;;;;;7368024;19;20017;-63
2022/05/05 02:05:58;;;;;;;40.80;31.65;;;11.50;66.40;;;;;;7366648;19;20031;-63
2022/05/05 02:08:30;;;;;;;42.42;31.95;;;11.40;64.70;;;;;;7382592;19;20010;-63
2022/05/05 02:11:00;;;;;;;41.65;31.15;;;11.40;65.50;;;;;;7364472;19;20486;-63
2022/05/05 02:13:30;;;;;;;39.63;29.10;;;11.30;65.50;;;;;;7367880;19;20621;-63
2022/05/05 02:16:01;;;;;;;35.88;27.70;;;11.30;65.70;;;;;;7367216;19;20035;-63
2022/05/05 02:18:31;;;;;;;33.03;27.55;;;11.20;65.20;;;;;;7362576;19;20022;-63
2022/05/05 02:21:01;;;;;;;34.15;26.13;;;11.20;65.20;;;;;;7364094;19;20136;-62
2022/05/05 02:23:33;;;;;;;34.03;26.27;;;11.10;64.90;;;;;;7389945;19;20339;-62
2022/05/05 02:26:04;;;;;;;33.00;27.05;;;11.10;65.10;;;;;;7365431;19;20010;-62
2022/05/05 02:28:34;;;;;;;33.33;26.02;;;11.00;65.00;;;;;;7360815;19;20010;-62
2022/05/05 02:31:04;;;;;;;30.63;25.02;;;11.00;65.20;;;;;;7359938;19;20015;-63
2022/05/05 02:33:34;;;;;;;34.00;26.13;;;11.00;65.30;;;;;;7367945;19;20381;-63
2022/05/05 02:38:49;;;;;;;31.25;24.80;;;11.00;65.10;;;;;;7361411;19;20035;-63
2022/05/05 02:41:19;;;;;;;31.17;25.17;;;11.00;65.30;;;;;;7362834;19;20031;-63
2022/05/05 02:43:49;;;;;;;37.70;29.38;;;10.90;64.90;;;;;;7365295;19;20038;-63
2022/05/05 02:46:18;;;;;;;41.38;30.92;;;10.80;65.70;;;;;;7367412;19;20035;-63
2022/05/05 02:48:48;;;;;;;40.67;31.02;;;10.80;66.20;;;;;;7360999;19;20010;-62
2022/05/05 02:51:18;;;;;;;41.03;31.25;;;10.80;66.70;;;;;;7384806;19;20022;-63
2022/05/05 02:56:33;;;;;;;43.78;31.88;;;10.60;67.00;;;;;;7363205;19;20510;-62
2022/05/05 02:59:03;;;;;;;45.60;33.33;;;10.60;67.40;;;;;;7356627;19;20579;-62
2022/05/05 03:01:34;;;;;;;42.70;30.95;;;10.60;68.10;;;;;;7361295;19;20698;-62
2022/05/05 03:04:04;;;;;;;43.78;32.80;;;10.50;68.00;;;;;;7365642;19;20018;-62
2022/05/05 03:06:33;;;;;;;54.17;34.88;;;10.50;68.70;;;;;;7389310;19;20085;-63
2022/05/05 03:09:06;;;;;;;48.22;34.10;;;10.50;68.80;;;;;;7361322;19;20736;-63
2022/05/05 03:11:36;;;;;;;47.85;32.47;;;10.50;69.20;;;;;;7362070;19;20035;-63
2022/05/05 03:14:06;;;;;;;43.60;31.85;;;10.50;69.50;;;;;;7365396;19;20018;-63
2022/05/05 03:16:36;;;;;;;49.17;34.75;;;10.40;69.40;;;;;;7366036;19;20081;-63
2022/05/05 03:19:06;;;;;;;47.10;33.13;;;10.50;69.80;;;;;;7353608;19;20025;-62
2022/05/05 03:21:35;;;;;;;47.67;33.22;;;10.40;70.00;;;;;;7373183;19;20014;-63
2022/05/05 03:24:09;;;;;;;41.55;31.42;;;10.40;70.10;;;;;;7361629;19;20018;-63
2022/05/05 03:26:39;;;;;;;44.85;31.17;;;10.40;70.10;;;;;;7365480;19;20406;-62
2022/05/05 03:29:09;;;;;;;45.88;32.95;;;10.40;70.50;;;;;;7359550;19;20011;-62
2022/05/05 03:31:39;;;;;;;43.60;32.25;;;10.40;70.60;;;;;;7361352;19;20484;-62
2022/05/05 03:34:09;;;;;;;46.92;32.15;;;10.40;70.90;;;;;;7364496;19;20400;-62
2022/05/05 03:36:40;;;;;;;51.90;32.83;;;10.40;71.10;;;;;;7362619;19;20026;-63
2022/05/05 03:39:13;;;;;;;46.30;34.05;;;10.30;71.00;;;;;;7381279;19;20010;-62
2022/05/05 03:41:42;;;;;;;44.85;33.90;;;10.30;71.00;;;;;;7361233;19;21300;-62
2022/05/05 03:44:12;;;;;;;46.72;34.35;;;10.30;71.20;;;;;;7362963;19;20086;-62
2022/05/05 03:46:42;;;;;;;50.28;35.03;;;10.30;71.50;;;;;;7364551;19;20467;-62
2022/05/05 03:49:12;;;;;;;47.85;35.00;;;10.30;71.50;;;;;;7355760;19;20085;-62
2022/05/05 03:51:42;;;;;;;46.55;32.50;;;10.30;71.60;;;;;;7360696;19;20085;-63
2022/05/05 03:54:15;;;;;;;45.20;33.55;;;10.20;71.40;;;;;;7383723;19;20081;-62
2022/05/05 03:56:45;;;;;;;49.40;33.03;;;10.20;71.50;;;;;;7362692;19;20417;-63
2022/05/05 03:59:15;;;;;;;43.58;32.17;;;10.30;71.70;;;;;;7358150;19;20023;-62
2022/05/05 04:01:45;;;;;;;48.90;32.53;;;10.30;71.80;;;;;;7360861;19;20007;-63
2022/05/05 04:04:15;;;;;;;44.30;33.03;;;10.40;72.00;;;;;;7361385;19;20010;-63
2022/05/05 04:06:45;;;;;;;45.08;32.72;;;10.50;72.40;;;;;;7363178;19;20018;-63
2022/05/05 04:09:18;;;;;;;42.80;30.83;;;10.50;72.30;;;;;;7379334;19;20105;-63
2022/05/05 04:11:48;;;;;;;42.40;30.90;;;10.50;72.30;;;;;;7360686;19;20031;-63
2022/05/05 04:14:18;;;;;;;41.97;30.88;;;10.60;72.40;;;;;;7361037;19;20070;-62
2022/05/05 04:16:47;;;;;;;48.25;32.03;;;10.70;72.70;;;;;;7363529;19;20074;-62
2022/05/05 04:19:17;;;;;;;40.30;30.55;;;10.80;72.30;;;;;;7358328;19;20093;-62
2022/05/05 04:21:47;;;;;;;36.92;28.25;;;10.70;71.10;;;;;;7360609;19;20020;-62
2022/05/05 04:24:20;;;;;;;36.20;28.90;;;10.80;71.60;;;;;;7384119;19;20030;-62
2022/05/05 04:26:50;;;;;;;38.38;29.90;;;10.90;70.60;;;;;;7362989;19;20023;-62
2022/05/05 04:29:21;;;;;;;38.40;29.77;;;11.00;69.50;;;;;;7357365;19;20010;-63
2022/05/05 04:31:53;;;;;;;37.20;29.13;;;11.00;69.70;;;;;;7359567;19;20007;-63
2022/05/05 04:34:23;;;;;;;37.85;29.30;;;11.20;67.90;;;;;;7362075;19;20413;-63
2022/05/05 04:36:53;;;;;;;37.65;28.05;;;11.60;65.10;;;;;;7362689;19;20030;-63
2022/05/05 04:39:25;;;;;;;36.08;28.05;;;12.00;63.50;;;;;;7380123;19;20463;-63
2022/05/05 04:41:56;;;;;;;38.70;28.13;;;12.00;57.10;;;;;;7359868;19;20014;-63
2022/05/05 04:44:25;;;;;;;35.20;26.38;;;11.90;58.90;;;;;;7361638;19;20439;-63
2022/05/05 04:46:55;;;;;;;31.42;24.63;;;11.90;55.20;;;;;;7362916;19;20082;-62
2022/05/05 04:49:25;;;;;;;30.77;23.73;;;11.90;54.30;;;;;;7356883;19;20010;-62
2022/05/05 04:51:55;;;;;;;27.58;22.92;;;11.60;53.00;;;;;;7358829;19;20044;-62
2022/05/05 04:54:28;;;;;;;28.20;22.98;;;11.60;56.30;;;;;;7384325;19;20136;-62
2022/05/05 04:56:58;;;;;;;27.58;22.40;;;11.50;56.40;;;;;;7360835;19;20010;-61
2022/05/05 04:59:28;;;;;;;33.35;22.85;;;11.50;57.20;;;;;;7356881;19;20014;-62
2022/05/05 05:01:57;;;;;;;24.25;20.75;;;11.40;56.50;;;;;;7359444;19;20082;-62
2022/05/05 05:04:27;;;;;;;25.65;20.65;;;11.20;55.20;;;;;;7361248;19;20791;-62
2022/05/05 05:06:58;;;;;;;26.23;19.75;;;11.40;56.90;;;;;;7363866;19;20041;-62
2022/05/05 05:09:30;;;;;;;28.42;21.25;;;11.20;56.10;;;;;;7378471;19;20039;-62
2022/05/05 05:12:00;;;;;;;27.42;20.98;;;11.10;55.40;;;;;;7358880;19;20018;-62
2022/05/05 05:14:30;;;;;;;28.48;21.38;;;11.10;57.10;;;;;;7358876;19;20870;-62
2022/05/05 05:17:00;;;;;;;28.77;21.50;;;11.10;56.30;;;;;;7361974;19;20022;-62
2022/05/05 05:19:30;;;;;;;28.55;21.92;;;11.10;57.70;;;;;;7356444;19;20114;-62
2022/05/05 05:22:00;;;;;;;29.20;22.02;;;11.30;58.50;;;;;;7358819;19;20039;-63
2022/05/05 05:24:32;;;;;;;25.50;21.95;;;11.40;58.30;;;;;;7382567;19;20056;-63
2022/05/05 05:27:02;;;;;;;31.42;22.15;;;11.40;56.90;;;;;;7360848;19;20078;-63
2022/05/05 05:29:32;;;;;;;26.85;21.60;;;11.50;58.30;;;;;;7355560;19;20366;-63
2022/05/05 05:32:02;;;;;;;24.50;21.38;;;11.60;57.30;;;;;;7356376;19;20018;-63
2022/05/05 05:34:32;;;;;;;24.90;21.35;;;11.60;55.00;;;;;;7359391;19;20014;-62
2022/05/05 05:37:03;;;;;;;27.40;20.65;;;11.60;54.10;;;;;;7360387;19;20028;-62
2022/05/05 05:39:37;;;;;;;26.05;20.92;;;11.70;55.10;;;;;;7376407;19;20011;-63
2022/05/05 05:42:08;;;;;;;27.02;21.80;;;11.60;50.90;;;;;;7358131;19;20039;-63
2022/05/05 05:44:38;;;;;;;27.13;20.88;;;11.70;53.80;;;;;;7363875;19;20098;-62
2022/05/05 05:47:10;;;;;;;23.75;20.23;;;11.80;55.10;;;;;;7364257;19;20121;-62
2022/05/05 05:49:40;;;;;;;24.45;19.58;;;12.00;55.30;;;;;;7358358;19;20474;-62
2022/05/05 05:52:10;;;;;;;20.58;16.98;;;12.10;53.30;;;;;;7364481;19;20026;-62
2022/05/05 05:54:42;;;;;;;19.45;16.15;;;12.00;49.30;;;;;;7365918;19;20082;-62
2022/05/05 05:57:19;;;;;;;22.02;16.98;;;11.90;47.30;;;;;;7386317;19;20010;-62
2022/05/05 05:59:49;;;;;;;23.52;15.75;;;12.00;45.80;;;;;;7362155;19;20027;-62
2022/05/05 06:05:01;;;;;;;18.98;16.42;;;12.20;47.80;;;;;;7365795;19;20011;-63
2022/05/05 06:07:32;;;;;;;20.13;16.63;;;12.20;45.40;;;;;;7366466;19;20010;-62
2022/05/05 06:10:05;;;;;;;18.25;15.75;;;12.30;44.60;;;;;;7361799;19;20026;-62
2022/05/05 06:12:35;;;;;;;18.20;15.98;;;12.00;45.40;;;;;;7386814;19;20022;-62
2022/05/05 06:15:06;;;;;;;19.48;15.70;;;12.00;47.30;;;;;;7364583;19;20133;-62
2022/05/05 06:17:39;;;;;;;19.40;16.30;;;12.20;49.00;;;;;;7363016;19;20503;-63
2022/05/05 06:20:10;;;;;;;20.83;16.65;;;12.10;48.60;;;;;;7363047;19;20182;-61
2022/05/05 06:22:40;;;;;;;20.75;15.10;;;12.40;48.80;;;;;;7364965;19;20018;-62
2022/05/05 06:25:14;;;;;;;18.48;15.50;;;12.50;46.00;;;;;;7366000;19;20068;-63
2022/05/05 06:27:44;;;;;;;17.57;14.40;;;12.60;45.50;;;;;;7365761;19;20014;-62
2022/05/05 06:30:19;;;;;;;17.80;13.80;;;12.50;45.50;;;;;;7381827;19;20275;-62
2022/05/05 06:32:50;;;;;;;15.07;13.48;;;12.60;44.30;;;;;;7365110;19;20023;-63
2022/05/05 06:35:20;;;;;;;16.80;13.55;;;12.80;43.80;;;;;;7363639;19;20022;-63
2022/05/05 06:37:51;;;;;;;17.65;13.10;;;12.70;40.90;;;;;;7365405;19;20546;-62
2022/05/05 06:40:24;;;;;;;14.85;12.63;;;12.70;43.00;;;;;;7359497;19;20011;-62
2022/05/05 06:42:54;;;;;;;15.23;12.88;;;12.40;42.00;;;;;;7364480;19;20040;-62
2022/05/05 06:45:25;;;;;;;15.05;12.93;;;12.70;43.60;;;;;;7385505;19;20023;-62
2022/05/05 06:47:58;;;;;;;16.05;13.25;;;12.90;42.30;;;;;;7364489;19;20017;-62
2022/05/05 06:50:28;;;;;;;16.47;12.73;;;12.70;39.40;;;;;;7360383;19;20731;-62
2022/05/05 06:53:00;;;;;;;12.50;11.20;;;12.50;41.70;;;;;;7365047;19;20027;-62
2022/05/05 06:55:32;;;;;;;14.75;12.60;;;12.50;39.90;;;;;;7363325;19;20027;-62
2022/05/05 06:58:02;;;;;;;15.88;12.85;;;12.60;40.20;;;;;;7361246;19;20086;-62
2022/05/05 07:03:14;;;;;;;18.45;13.38;;;12.50;39.40;;;;;;7365164;19;20089;-61
2022/05/05 07:05:42;;;;;;;16.42;14.70;;;12.60;43.50;;;;;;7362645;19;20014;-62
2022/05/05 07:08:12;;;;;;;17.02;13.05;;;12.50;44.30;;;;;;7361461;19;20014;-62
2022/05/05 07:10:54;;;;;;;17.88;14.52;;;12.30;41.10;;;;;;7362139;19;20358;-63
2022/05/05 07:13:25;;;;;;;16.23;13.70;;;12.40;41.70;;;;;;7364725;19;20015;-62
2022/05/05 07:15:55;;;;;;;16.90;14.27;;;12.40;43.50;;;;;;7363075;19;20094;-62
2022/05/05 07:18:25;;;;;;;20.40;14.18;;;12.40;42.90;;;;;;7379264;19;20007;-62
2022/05/05 07:20:55;;;;;;;17.98;13.75;;;12.40;46.50;;;;;;7361763;19;20044;-62
2022/05/05 07:23:25;;;;;;;21.15;13.48;;;12.30;43.30;;;;;;7364582;19;20059;-63
2022/05/05 07:25:57;;;;;;;14.90;13.35;;;12.30;43.60;;;;;;7364679;19;20014;-62
2022/05/05 07:28:27;;;;;;;15.65;12.82;;;12.50;42.30;;;;;;7357441;19;20374;-63
2022/05/05 07:30:58;;;;;;;16.05;13.05;;;12.60;43.50;;;;;;7362117;19;21006;-61
2022/05/05 07:33:27;;;;;;;15.35;13.10;;;12.70;43.60;;;;;;7386410;19;20474;-61
2022/05/05 07:35:57;;;;;;;14.90;12.25;;;12.90;42.40;;;;;;7361011;19;20034;-61
2022/05/05 07:38:27;;;;;;;14.15;12.60;;;12.90;39.40;;;;;;7355681;19;20007;-62
2022/05/05 07:40:59;;;;;;;16.83;12.80;;;12.80;34.90;;;;;;7360864;19;21586;-61
2022/05/05 07:43:30;;;;;;;18.27;13.57;;;12.60;39.30;;;;;;7365269;19;20018;-62
2022/05/05 07:46:00;;;;;;;15.57;13.35;;;12.60;40.00;;;;;;7362145;19;20526;-63
2022/05/05 07:48:30;;;;;;;14.82;12.75;;;12.90;39.70;;;;;;7380354;19;20014;-63
2022/05/05 07:51:00;;;;;;;16.00;13.20;;;13.00;35.60;;;;;;7360355;19;20495;-63
2022/05/05 07:53:31;;;;;;;17.05;13.07;;;13.40;38.70;;;;;;7362586;19;20020;-61
2022/05/05 07:56:03;;;;;;;15.00;11.98;;;13.30;32.90;;;;;;7363320;19;20014;-62
2022/05/05 07:58:34;;;;;;;14.82;12.23;;;13.10;31.90;;;;;;7358232;19;20085;-62
2022/05/05 08:01:03;;;;;;;16.30;12.25;;;13.40;35.80;;;;;;7361049;19;20014;-62
2022/05/05 08:03:33;;;;;;;17.38;14.25;;;13.50;28.60;;;;;;7385520;19;20074;-62
2022/05/05 08:06:04;;;;;;;16.25;12.63;;;13.30;34.20;;;;;;7361914;19;20507;-62
2022/05/05 08:08:34;;;;;;;15.85;13.25;;;13.30;35.70;;;;;;7357710;19;20009;-62
2022/05/05 08:11:07;;;;;;;15.25;12.75;;;13.50;34.80;;;;;;7359898;19;20016;-62
2022/05/05 08:13:37;;;;;;;16.85;13.27;;;13.50;30.00;;;;;;7363057;19;20031;-62
2022/05/05 08:16:07;;;;;;;15.55;12.80;;;13.30;31.30;;;;;;7363669;19;20096;-62
2022/05/05 08:18:38;;;;;;;16.85;13.70;;;13.80;32.30;;;;;;7371299;19;20017;-62
2022/05/05 08:21:10;;;;;;;16.52;13.65;;;13.70;33.30;;;;;;7382102;19;20054;-62
2022/05/05 08:23:41;;;;;;;20.15;16.05;;;13.90;31.90;;;;;;7362647;19;20044;-62
2022/05/05 08:28:56;;;;;;;18.65;15.88;;;13.50;29.60;;;;;;7356871;19;20018;-62
2022/05/05 08:31:26;;;;;;;19.17;16.38;;;13.50;31.30;;;;;;7359914;19;20010;-62
2022/05/05 08:33:56;;;;;;;19.67;16.38;;;13.70;27.40;;;;;;7361687;19;20014;-62
2022/05/05 08:36:25;;;;;;;20.17;16.60;;;13.50;28.60;;;;;;7382014;19;20019;-62
2022/05/05 08:38:56;;;;;;;20.17;16.20;;;13.80;29.00;;;;;;7354554;19;20013;-62
2022/05/05 08:41:28;;;;;;;19.45;16.33;;;13.60;26.20;;;;;;7358878;19;20010;-62
2022/05/05 08:43:58;;;;;;;17.92;15.63;;;13.80;26.30;;;;;;7362799;19;20022;-62
2022/05/05 08:46:35;;;;;;;20.45;16.15;;;13.80;25.60;;;;;;7361598;19;20010;-62
2022/05/05 08:49:07;;;;;;;22.00;16.35;;;13.90;26.60;;;;;;7355713;19;20489;-63
2022/05/05 08:51:45;;;;;;;20.10;16.95;;;14.00;24.80;;;;;;7380703;19;20472;-61
2022/05/05 08:54:18;;;;;;;23.58;16.58;;;13.90;26.50;;;;;;7361080;19;20476;-62
2022/05/05 08:56:51;;;;;;;20.85;16.20;;;14.40;23.20;;;;;;7361988;19;20022;-62
2022/05/05 08:59:22;;;;;;;18.83;15.60;;;14.20;20.20;;;;;;7352445;19;20020;-62
2022/05/05 09:01:53;;;;;;;18.92;16.08;;;14.00;21.30;;;;;;7356374;19;20378;-62
2022/05/05 09:04:28;;;;;;;21.13;16.20;;;14.10;22.40;;;;;;7361736;19;20128;-62
2022/05/05 09:06:58;;;;;;;21.35;15.43;;;14.40;22.90;;;;;;7361226;19;20099;-62
2022/05/05 09:09:29;;;;;;;22.00;16.20;;;14.40;21.40;;;;;;7378717;19;20019;-62
2022/05/05 09:12:19;;;;;;;24.20;16.90;;;14.20;21.70;;;;;;7358652;19;20476;-62
2022/05/05 09:14:50;;;;;;;22.23;15.75;;;14.40;21.80;;;;;;7350739;19;20019;-63
2022/05/05 09:17:22;;;;;;;20.73;17.13;;;14.60;18.20;;;;;;7360272;19;20510;-63
2022/05/05 09:19:54;;;;;;;21.60;17.10;;;14.40;20.60;;;;;;7361441;19;20014;-63
2022/05/05 09:22:27;;;;;;;22.35;16.75;;;14.60;19.70;;;;;;7364323;19;20044;-63
2022/05/05 09:25:01;;;;;;;22.80;17.88;;;14.50;18.00;;;;;;7366184;19;20018;-63
2022/05/05 09:27:35;;;;;;;28.25;19.20;;;14.40;18.00;;;;;;7391153;19;20081;-63
2022/05/05 09:30:11;;;;;;;26.48;19.88;;;14.10;15.70;;;;;;7361806;19;20010;-63
2022/05/05 09:32:44;;;;;;;28.13;20.10;;;13.70;18.00;;;;;;7364351;19;20003;-63
2022/05/05 09:35:15;;;;;;;30.33;23.52;;;14.00;18.30;;;;;;7365749;19;20031;-63
2022/05/05 09:37:47;;;;;;;25.77;20.83;;;14.10;19.60;;;;;;7369128;19;20010;-63
2022/05/05 09:40:20;;;;;;;31.25;22.40;;;14.10;17.80;;;;;;7361541;19;20010;-65
2022/05/05 09:42:55;;;;;;;29.98;22.23;;;14.30;15.70;;;;;;7367323;19;20026;-63
2022/05/05 09:45:26;;;;;;;32.88;23.27;;;13.90;16.20;;;;;;7387489;19;20039;-63
2022/05/05 09:47:58;;;;;;;30.63;23.55;;;13.80;15.20;;;;;;7368359;19;20425;-63
2022/05/05 09:50:29;;;;;;;28.67;23.65;;;13.80;15.60;;;;;;7362877;19;20026;-63
2022/05/05 09:58:35;;;;;;;28.33;20.77;;;14.30;16.10;;;;;;7361425;19;20466;-63
2022/05/05 10:01:09;;;;;;;25.15;21.35;;;14.20;15.30;;;;;;7364581;19;20015;-63
2022/05/05 10:06:34;;;;;;;23.98;19.67;;;14.10;17.30;;;;;;7389425;19;20019;-62
2022/05/05 10:09:06;;;;;;;24.42;20.50;;;14.80;17.00;;;;;;7361265;19;20010;-63
2022/05/05 10:11:37;;;;;;;24.38;19.55;;;14.80;16.60;;;;;;7363640;19;20481;-63
2022/05/05 10:14:11;;;;;;;25.50;20.38;;;14.40;16.70;;;;;;7365989;19;20010;-63
2022/05/05 10:16:44;;;;;;;29.52;19.48;;;14.30;18.20;;;;;;7366976;19;20021;-62
2022/05/05 10:19:15;;;;;;;23.52;19.35;;;14.70;18.30;;;;;;7360457;19;20010;-62
2022/05/05 10:21:52;;;;;;;26.58;20.67;;;14.70;16.40;;;;;;7363501;19;20041;-63
2022/05/05 10:24:27;;;;;;;25.58;21.65;;;15.00;15.90;;;;;;7386811;19;20464;-63
2022/05/05 10:26:57;;;;;;;;;;;14.60;18.20;;;;;;7366981;19;20561;-63
2022/05/05 10:29:48;;;;;;;28.08;22.63;;;15.10;12.30;;;;;;7357525;19;19990;-63
2022/05/05 10:32:21;;;;;;;26.08;22.10;;;15.00;13.70;;;;;;7363387;19;20022;-63
2022/05/05 10:34:55;;;;;;;29.33;21.80;;;15.50;10.80;;;;;;7364992;19;20014;-63
2022/05/05 10:37:36;;;;;;;29.33;22.15;;;15.60;7.70;;;;;;7366428;19;20014;-63
2022/05/05 10:40:08;;;;;;;26.52;22.05;;;15.30;11.40;;;;;;7359886;19;20018;-63
2022/05/05 10:42:40;;;;;;;28.98;21.45;;;15.70;10.30;;;;;;7373137;19;20024;-63
2022/05/05 10:45:15;;;;;;;27.05;21.95;;;15.20;11.40;;;;;;7384789;19;20748;-64
2022/05/05 10:48:18;;;;;;;27.55;22.42;;;15.10;12.60;;;;;;7365729;19;20007;-64
2022/05/05 10:50:56;;;;;;;28.27;22.45;;;15.00;10.70;;;;;;7359448;19;21264;-64
2022/05/05 10:53:40;;;;;;;27.55;23.13;;;15.50;11.50;;;;;;7356167;19;20417;-63
2022/05/05 10:56:34;;;;;;;31.00;24.05;;;14.80;11.10;;;;;;7356750;19;20038;-62
2022/05/05 10:59:08;;;;;;;31.00;24.10;;;14.40;14.40;;;;;;7352525;19;20014;-63
2022/05/05 11:02:04;;;;;;;31.15;23.83;;;14.80;14.00;;;;;;7361960;19;20014;-63
2022/05/05 11:04:34;;;;;;;29.35;23.70;;;14.70;9.70;;;;;;7364065;19;20470;-63
2022/05/05 11:07:36;;;;;;;31.02;23.08;;;14.90;12.10;;;;;;7364607;19;20075;-63
2022/05/05 11:10:11;;;;;;;24.95;21.45;;;15.20;10.50;;;;;;7359994;19;20189;-64
2022/05/05 11:12:41;;;;;;;25.20;21.27;;;15.40;10.20;;;;;;7363660;19;20031;-64
2022/05/05 11:23:28;;;;;;;27.95;23.10;;;15.50;9.00;;;;;;7364911;19;20010;-63
2022/05/05 11:26:00;;;;;;;29.23;22.70;;;15.90;5.20;;;;;;7362693;19;20359;-63
2022/05/05 11:28:31;;;;;;;29.15;23.55;;;15.50;4.30;;;;;;7358281;19;20010;-63
2022/05/05 11:31:02;;;;;;;30.55;24.02;;;15.60;4.20;;;;;;7361173;19;20115;-63
2022/05/05 11:33:38;;;;;;;29.92;24.55;;;15.40;8.60;;;;;;7386036;19;20038;-63
2022/05/05 11:36:09;;;;;;;34.03;25.25;;;15.50;7.40;;;;;;7364892;19;20017;-63
2022/05/05 11:38:44;;;;;;;31.60;25.27;;;15.10;9.00;;;;;;7357223;19;20010;-63
2022/05/05 11:41:18;;;;;;;31.23;24.77;;;15.30;9.30;;;;;;7357590;19;20010;-63
2022/05/05 11:46:32;;;;;;;;;;;15.50;6.30;;;;;;7363064;19;20040;-64
2022/05/05 11:49:06;;;;;;;32.53;24.20;;;15.80;8.00;;;;;;7356816;19;19922;-64
2022/05/05 11:51:37;;;;;;;29.65;23.17;;;16.00;6.20;;;;;;7382449;19;20011;-63
2022/05/05 11:54:10;;;;;;;36.42;25.30;;;15.40;8.00;;;;;;7363914;19;20094;-63
2022/05/05 11:56:46;;;;;;;36.38;26.58;;;15.80;9.70;;;;;;7363373;19;20454;-64
2022/05/05 12:02:04;;;;;;;32.50;25.42;;;15.20;8.30;;;;;;7360434;19;20007;-64
2022/05/05 12:04:37;;;;;;;38.58;24.10;;;15.20;13.30;;;;;;7362263;19;20010;-63
2022/05/05 12:07:10;;;;;;;37.50;25.95;;;15.30;10.20;;;;;;7363782;19;20018;-63
2022/05/05 12:09:41;;;;;;;36.13;25.83;;;15.40;9.60;;;;;;7357225;19;20014;-64
2022/05/05 12:12:13;;;;;;;33.35;24.85;;;15.10;12.00;;;;;;7381222;19;20013;-64
2022/05/05 12:14:44;;;;;;;34.10;24.60;;;15.30;11.50;;;;;;7362226;19;20469;-63
2022/05/05 12:17:22;;;;;;;36.25;25.27;;;14.60;13.60;;;;;;7363910;19;20010;-63
2022/05/05 12:19:57;;;;;;;33.50;25.23;;;14.70;16.40;;;;;;7355328;19;20007;-64
2022/05/05 12:22:31;;;;;;;34.17;24.98;;;14.50;16.60;;;;;;7359724;19;20467;-64
2022/05/05 12:25:06;;;;;;;37.85;27.25;;;14.20;21.70;;;;;;7362274;19;20398;-64
2022/05/05 12:27:37;;;;;;;35.20;25.52;;;14.40;25.00;;;;;;7380732;19;20018;-64
2022/05/05 12:30:08;;;;;;;35.55;26.63;;;14.10;21.80;;;;;;7353998;19;20016;-65
2022/05/05 12:32:53;;;;;;;40.75;28.42;;;14.10;23.00;;;;;;7358663;19;20065;-62
2022/05/05 12:35:34;;;;;;;40.35;28.25;;;14.30;26.40;;;;;;7359321;19;20479;-66
2022/05/05 12:38:07;;;;;;;41.15;28.88;;;14.30;26.70;;;;;;7359989;19;20025;-64
2022/05/05 12:40:40;;;;;;;43.03;29.40;;;14.40;28.90;;;;;;7355761;19;20023;-64
2022/05/05 12:43:13;;;;;;;44.37;30.13;;;14.20;28.30;;;;;;7361802;19;20038;-63
2022/05/05 12:45:45;;;;;;;42.00;30.98;;;14.10;32.00;;;;;;7358006;19;20032;-64
2022/05/05 12:48:15;;;;;;;45.25;30.88;;;14.30;32.20;;;;;;7378451;19;20015;-64
2022/05/05 12:50:49;;;;;;;43.65;32.70;;;14.30;30.10;;;;;;7357365;19;20111;-64
2022/05/05 13:01:34;;;;;;;48.33;31.15;;;14.30;35.40;;;;;;7363880;19;20086;-64
2022/05/05 13:04:09;;;;;;;44.33;32.22;;;14.30;29.90;;;;;;7369247;19;20011;-63
2022/05/05 13:06:42;;;;;;;40.88;30.48;;;14.40;32.10;;;;;;7374611;19;20018;-64
2022/05/05 13:09:13;;;;;;;45.47;30.25;;;14.30;31.40;;;;;;7384271;19;20079;-63
2022/05/05 13:11:46;;;;;;;43.25;30.13;;;14.40;31.40;;;;;;7362986;19;20101;-63
2022/05/05 13:14:17;;;;;;;36.75;28.17;;;14.30;26.20;;;;;;7368236;19;20054;-64
2022/05/05 13:16:47;;;;;;;40.42;27.92;;;14.40;25.10;;;;;;7367474;19;20109;-63
2022/05/05 13:19:17;;;;;;;39.10;27.35;;;14.50;25.20;;;;;;7361816;19;20027;-64
2022/05/05 13:21:49;;;;;;;40.33;27.70;;;14.60;23.20;;;;;;7361797;19;20031;-64
2022/05/05 13:24:21;;;;;;;36.53;27.35;;;14.70;25.30;;;;;;7388504;19;20018;-64
2022/05/05 13:26:51;;;;;;;34.90;26.60;;;14.80;23.80;;;;;;7367116;19;20346;-63
2022/05/05 13:29:21;;;;;;;34.65;26.45;;;14.60;23.60;;;;;;7362155;19;20013;-63
2022/05/05 13:31:51;;;;;;;34.35;26.08;;;14.60;23.60;;;;;;7365031;19;20007;-63
2022/05/05 13:34:21;;;;;;;37.58;26.55;;;15.00;23.90;;;;;;7367646;19;20007;-63
2022/05/05 13:36:54;;;;;;;35.70;25.42;;;15.10;21.40;;;;;;7369413;19;20011;-63
2022/05/05 13:39:26;;;;;;;36.65;26.30;;;14.70;20.70;;;;;;7384737;19;20037;-63
2022/05/05 13:41:56;;;;;;;34.00;25.33;;;14.70;22.10;;;;;;7360179;19;20106;-63